createdAt,value
2022-12-25T00:01:32.381Z,10.55
2022-12-25T00:04:37.479Z,10.57
2022-12-25T00:07:43.017Z,10.63
2022-12-25T00:10:50.196Z,10.77
2022-12-25T00:13:59.979Z,10.65
2022-12-25T00:17:05.355Z,10.65
2022-12-25T00:20:19.414Z,10.73
2022-12-25T00:23:23.653Z,10.60
2022-12-25T00:26:30.770Z,10.61
2022-12-25T00:29:34.766Z,10.67
2022-12-25T00:32:42.267Z,10.61
2022-12-25T00:35:58.888Z,10.64
2022-12-25T00:39:04.315Z,10.65
2022-12-25T00:42:20.259Z,10.42
2022-12-25T00:45:24.548Z,10.37
2022-12-25T00:48:30.239Z,10.36
2022-12-25T00:51:37.896Z,10.23
2022-12-25T00:54:44.401Z,10.28
2022-12-25T00:57:48.757Z,10.21
2022-12-25T01:00:53.016Z,9.68
2022-12-25T01:03:57.360Z,9.42
2022-12-25T01:07:03.357Z,9.74
2022-12-25T01:10:23.581Z,9.86
2022-12-25T01:13:34.732Z,9.95
2022-12-25T01:16:40.285Z,9.74
2022-12-25T01:19:44.503Z,9.77
2022-12-25T01:22:50.506Z,9.70
2022-12-25T01:25:57.025Z,9.71
2022-12-25T01:29:04.895Z,9.58
2022-12-25T01:32:12.540Z,9.49
2022-12-25T01:35:17.626Z,9.54
2022-12-25T01:38:23.855Z,9.35
2022-12-25T01:41:30.309Z,9.60
2022-12-25T01:45:23.215Z,9.20
2022-12-25T01:48:32.307Z,9.31
2022-12-25T01:51:42.780Z,9.34
2022-12-25T01:54:54.275Z,9.43
2022-12-25T01:58:00.447Z,9.32
2022-12-25T02:01:04.965Z,9.22
2022-12-25T02:04:17.936Z,9.14
2022-12-25T02:07:24.120Z,9.32
2022-12-25T02:10:30.350Z,9.24
2022-12-25T02:13:34.456Z,9.35
2022-12-25T02:16:57.443Z,9.14
2022-12-25T02:20:39.185Z,9.19
2022-12-25T02:23:57.543Z,9.07
2022-12-25T02:27:19.297Z,9.24
2022-12-25T02:30:27.237Z,9.17
2022-12-25T02:34:01.599Z,9.16
2022-12-25T02:37:09.146Z,9.26
2022-12-25T02:40:22.864Z,9.28
2022-12-25T02:43:50.009Z,9.00
2022-12-25T02:47:14.437Z,8.85
2022-12-25T02:50:39.643Z,9.15
2022-12-25T02:54:04.890Z,8.67
2022-12-25T02:57:30.029Z,8.79
2022-12-25T03:00:58.856Z,8.70
2022-12-25T03:04:26.585Z,8.63
2022-12-25T03:07:34.028Z,8.63
2022-12-25T03:10:59.429Z,8.54
2022-12-25T03:14:20.094Z,8.64
2022-12-25T03:17:26.344Z,8.74
2022-12-25T03:20:51.864Z,8.55
2022-12-25T03:24:18.262Z,8.52
2022-12-25T03:27:24.564Z,8.34
2022-12-25T03:30:53.736Z,8.18
2022-12-25T03:34:31.750Z,8.54
2022-12-25T03:38:02.825Z,8.41
2022-12-25T03:41:36.821Z,8.26
2022-12-25T03:45:19.042Z,8.62
2022-12-25T03:48:45.638Z,8.62
2022-12-25T03:52:10.427Z,8.35
2022-12-25T03:55:37.678Z,8.17
2022-12-25T03:59:10.223Z,8.52
2022-12-25T04:02:33.214Z,8.39
2022-12-25T04:05:54.491Z,8.34
2022-12-25T04:09:16.221Z,8.43
2022-12-25T04:12:40.883Z,8.45
2022-12-25T04:16:02.858Z,8.28
2022-12-25T04:19:26.221Z,8.18
2022-12-25T04:22:49.053Z,7.96
2022-12-25T04:26:10.408Z,7.68
2022-12-25T04:29:34.527Z,7.43
2022-12-25T04:32:55.548Z,7.98
2022-12-25T04:36:17.091Z,8.20
2022-12-25T04:39:23.609Z,7.88
2022-12-25T04:42:28.165Z,7.99
2022-12-25T04:45:33.499Z,8.09
2022-12-25T04:48:38.399Z,7.99
2022-12-25T04:51:42.361Z,7.82
2022-12-25T04:54:48.006Z,7.60
2022-12-25T04:57:52.758Z,7.95
2022-12-25T05:01:02.499Z,7.75
2022-12-25T05:04:06.914Z,8.01
2022-12-25T05:07:11.808Z,8.16
2022-12-25T05:10:34.535Z,8.15
2022-12-25T05:13:39.340Z,7.93
2022-12-25T05:16:47.146Z,7.86
2022-12-25T05:19:51.324Z,8.04
2022-12-25T05:22:55.591Z,8.13
2022-12-25T05:25:59.883Z,7.60
2022-12-25T05:29:03.550Z,7.63
2022-12-25T05:32:10.613Z,7.88
2022-12-25T05:35:14.137Z,7.61
2022-12-25T05:38:20.519Z,7.94
2022-12-25T05:41:27.873Z,7.61
2022-12-25T05:44:37.091Z,7.09
2022-12-25T05:47:43.539Z,6.97
2022-12-25T05:50:49.363Z,7.32
2022-12-25T05:53:53.537Z,7.60
2022-12-25T05:56:58.122Z,7.28
2022-12-25T06:00:01.733Z,7.54
2022-12-25T06:03:18.418Z,7.26
2022-12-25T06:06:48.603Z,7.32
2022-12-25T06:09:53.320Z,7.44
2022-12-25T06:12:57.712Z,7.12
2022-12-25T06:16:05.243Z,6.89
2022-12-25T06:19:11.517Z,7.16
2022-12-25T06:22:15.854Z,7.45
2022-12-25T06:25:19.980Z,7.21
2022-12-25T06:28:24.460Z,7.01
2022-12-25T06:31:28.243Z,7.25
2022-12-25T06:34:35.094Z,7.23
2022-12-25T06:37:39.827Z,7.29
2022-12-25T06:40:43.929Z,7.40
2022-12-25T06:43:49.743Z,7.46
2022-12-25T06:46:54.987Z,7.68
2022-12-25T06:50:00.539Z,7.90
2022-12-25T06:53:08.165Z,7.88
2022-12-25T06:56:18.987Z,7.87
2022-12-25T06:59:23.470Z,8.01
2022-12-25T07:02:37.413Z,7.87
2022-12-25T07:05:47.440Z,8.08
2022-12-25T07:09:24.490Z,8.22
2022-12-25T07:12:57.138Z,8.20
2022-12-25T07:20:04.675Z,7.92
2022-12-25T07:23:09.768Z,7.88
2022-12-25T07:26:22.812Z,7.44
2022-12-25T07:29:32.414Z,7.61
2022-12-25T07:32:36.725Z,7.93
2022-12-25T07:35:40.278Z,7.79
2022-12-25T07:38:51.969Z,7.92
2022-12-25T07:41:55.686Z,7.71
2022-12-25T07:45:07.015Z,7.96
2022-12-25T07:48:16.483Z,8.07
2022-12-25T07:51:23.488Z,8.07
2022-12-25T07:54:31.051Z,8.16
2022-12-25T07:57:36.446Z,8.27
2022-12-25T08:00:40.973Z,8.48
2022-12-25T08:03:51.087Z,8.55
2022-12-25T08:06:54.733Z,8.45
2022-12-25T08:10:00.206Z,8.78
2022-12-25T08:13:06.545Z,8.83
2022-12-25T08:16:15.350Z,8.94
2022-12-25T08:19:19.202Z,9.02
2022-12-25T08:22:25.919Z,9.16
2022-12-25T08:25:32.889Z,9.05
2022-12-25T08:28:40.106Z,9.30
2022-12-25T08:31:46.839Z,9.35
2022-12-25T08:34:51.141Z,9.55
2022-12-25T08:37:57.033Z,9.85
2022-12-25T08:41:06.271Z,9.89
2022-12-25T08:44:10.716Z,10.02
2022-12-25T08:47:15.034Z,10.21
2022-12-25T08:50:19.482Z,10.36
2022-12-25T08:53:24.528Z,10.35
2022-12-25T08:56:30.363Z,10.46
2022-12-25T08:59:34.980Z,10.51
2022-12-25T09:02:39.072Z,10.63
2022-12-25T09:05:43.556Z,10.79
2022-12-25T09:08:49.848Z,10.82
2022-12-25T09:11:55.790Z,10.82
2022-12-25T09:14:59.560Z,10.92
2022-12-25T09:18:04.018Z,10.97
2022-12-25T09:21:09.904Z,11.03
2022-12-25T09:24:15.184Z,10.93
2022-12-25T09:27:21.434Z,10.85
2022-12-25T09:30:25.689Z,10.90
2022-12-25T09:33:29.419Z,10.80
2022-12-25T09:36:34.379Z,10.78
2022-12-25T09:39:42.276Z,10.86
2022-12-25T09:42:56.456Z,10.90
2022-12-25T09:46:02.418Z,10.98
2022-12-25T09:49:14.579Z,11.07
2022-12-25T09:52:22.522Z,11.03
2022-12-25T09:55:31.934Z,11.12
2022-12-25T09:58:37.944Z,11.14
2022-12-25T10:01:54.761Z,11.18
2022-12-25T10:05:13.936Z,11.26
2022-12-25T10:08:30.271Z,11.34
2022-12-25T10:12:17.394Z,11.39
2022-12-25T10:15:55.787Z,11.46
2022-12-25T10:19:44.670Z,11.49
2022-12-25T10:23:37.748Z,11.48
2022-12-25T10:27:25.207Z,11.59
2022-12-25T10:30:34.144Z,11.58
2022-12-25T10:33:48.675Z,11.74
2022-12-25T10:37:20.954Z,11.79
2022-12-25T10:41:35.460Z,11.70
2022-12-25T10:45:15.005Z,11.78
2022-12-25T10:49:06.485Z,11.81
2022-12-25T10:53:22.609Z,11.82
2022-12-25T10:57:16.135Z,11.91
2022-12-25T11:00:38.198Z,12.01
2022-12-25T11:09:00.541Z,12.19
2022-12-25T11:12:56.183Z,12.26
2022-12-25T11:16:43.376Z,12.32
2022-12-25T11:19:58.586Z,12.34
2022-12-25T11:23:02.858Z,12.44
2022-12-25T11:26:11.579Z,12.46
2022-12-25T11:29:24.899Z,12.50
2022-12-25T11:32:34.360Z,12.48
2022-12-25T11:35:53.031Z,12.54
2022-12-25T11:39:03.581Z,12.62
2022-12-25T11:42:28.151Z,12.63
2022-12-25T11:45:38.762Z,12.67
2022-12-25T11:48:50.417Z,12.73
2022-12-25T11:52:11.954Z,12.73
2022-12-25T11:55:23.859Z,12.66
2022-12-25T11:58:44.476Z,12.75
2022-12-25T12:02:05.799Z,12.79
2022-12-25T12:05:19.959Z,12.82
2022-12-25T12:08:30.945Z,12.86
2022-12-25T12:11:57.042Z,12.91
2022-12-25T12:15:33.578Z,12.88
2022-12-25T12:19:02.702Z,12.99
2022-12-25T12:22:27.251Z,12.93
2022-12-25T12:25:49.190Z,13.03
2022-12-25T12:29:02.658Z,13.05
2022-12-25T12:32:56.350Z,13.05
2022-12-25T12:36:36.198Z,13.08
2022-12-25T12:40:11.417Z,13.07
2022-12-25T12:43:35.331Z,13.07
2022-12-25T12:46:53.258Z,13.07
2022-12-25T12:50:02.436Z,13.09
2022-12-25T12:53:29.728Z,12.99
2022-12-25T12:56:35.287Z,12.99
2022-12-25T12:59:46.203Z,13.01
2022-12-25T13:03:40.969Z,12.93
2022-12-25T13:06:57.204Z,13.01
2022-12-25T13:10:23.598Z,13.00
2022-12-25T13:13:53.684Z,13.01
2022-12-25T13:17:18.797Z,12.97
2022-12-25T13:20:33.745Z,12.98
2022-12-25T13:23:40.967Z,12.99
2022-12-25T13:26:44.512Z,13.01
2022-12-25T13:29:50.078Z,13.01
2022-12-25T13:32:54.632Z,13.01
2022-12-25T13:36:03.925Z,12.99
2022-12-25T13:39:29.440Z,13.01
2022-12-25T13:42:59.083Z,12.99
2022-12-25T13:46:29.123Z,12.94
2022-12-25T13:49:46.629Z,12.93
2022-12-25T13:52:58.792Z,12.85
2022-12-25T13:56:31.924Z,12.87
2022-12-25T14:00:10.053Z,12.87
2022-12-25T14:04:26.420Z,12.83
2022-12-25T14:08:16.458Z,12.77
2022-12-25T14:12:15.722Z,12.80
2022-12-25T14:15:24.990Z,12.81
2022-12-25T14:18:31.429Z,12.76
2022-12-25T14:21:40.665Z,12.81
2022-12-25T14:24:55.689Z,12.74
2022-12-25T14:28:46.109Z,12.68
2022-12-25T14:32:00.616Z,12.70
2022-12-25T14:35:07.629Z,12.74
2022-12-25T14:38:23.918Z,12.68
2022-12-25T14:41:38.097Z,12.67
2022-12-25T14:44:44.407Z,12.61
2022-12-25T14:47:53.167Z,12.54
2022-12-25T14:51:02.234Z,12.55
2022-12-25T14:54:19.840Z,12.55
2022-12-25T14:57:53.084Z,12.48
2022-12-25T15:01:14.608Z,12.42
2022-12-25T15:04:33.643Z,12.35
2022-12-25T15:07:44.309Z,12.24
2022-12-25T15:11:27.901Z,12.10
2022-12-25T15:14:40.386Z,12.03
2022-12-25T15:17:50.188Z,11.91
2022-12-25T15:20:57.233Z,12.00
2022-12-25T15:24:04.970Z,11.85
2022-12-25T15:27:17.936Z,11.73
2022-12-25T15:30:28.594Z,11.67
2022-12-25T15:33:44.113Z,11.56
2022-12-25T15:36:55.314Z,11.45
2022-12-25T15:40:06.605Z,11.40
2022-12-25T15:43:41.290Z,11.09
2022-12-25T15:46:57.679Z,11.06
2022-12-25T15:50:17.746Z,10.95
2022-12-25T15:53:46.229Z,10.75
2022-12-25T15:57:57.613Z,10.73
2022-12-25T16:01:16.274Z,10.51
2022-12-25T16:04:20.475Z,10.45
2022-12-25T16:07:32.214Z,10.35
2022-12-25T16:10:49.524Z,10.46
2022-12-25T16:14:10.952Z,10.27
2022-12-25T16:17:29.453Z,10.17
2022-12-25T16:20:38.077Z,10.12
2022-12-25T16:24:14.214Z,10.04
2022-12-25T16:27:38.804Z,10.03
2022-12-25T16:30:47.291Z,10.05
2022-12-25T16:34:01.757Z,10.03
2022-12-25T16:37:16.960Z,9.90
2022-12-25T16:41:38.007Z,9.67
2022-12-25T16:45:00.983Z,9.75
2022-12-25T16:48:06.464Z,9.71
2022-12-25T16:51:13.257Z,9.37
2022-12-25T16:54:16.878Z,9.29
2022-12-25T16:57:24.177Z,9.40
2022-12-25T17:00:29.376Z,9.40
2022-12-25T17:03:33.530Z,9.28
2022-12-25T17:06:40.774Z,9.13
2022-12-25T17:09:50.267Z,9.32
2022-12-25T17:12:54.449Z,9.20
2022-12-25T17:16:16.019Z,9.19
2022-12-25T17:19:24.127Z,9.00
2022-12-25T17:22:46.254Z,8.64
2022-12-25T17:26:03.177Z,8.49
2022-12-25T17:29:29.818Z,8.68
2022-12-25T17:33:11.277Z,8.44
2022-12-25T17:36:30.091Z,8.54
2022-12-25T17:39:33.868Z,8.40
2022-12-25T17:42:40.722Z,8.42
2022-12-25T17:45:48.743Z,8.50
2022-12-25T17:49:07.903Z,8.44
2022-12-25T17:52:12.152Z,8.32
2022-12-25T17:55:19.690Z,8.45
2022-12-25T17:58:24.254Z,8.39
2022-12-25T18:01:30.317Z,8.14
2022-12-25T18:04:38.186Z,8.23
2022-12-25T18:07:46.323Z,8.25
2022-12-25T18:10:59.824Z,8.13
2022-12-25T18:14:08.501Z,8.11
2022-12-25T18:17:12.394Z,8.12
2022-12-25T18:20:20.504Z,8.07
2022-12-25T18:23:26.255Z,8.02
2022-12-25T18:26:32.088Z,7.83
2022-12-25T18:29:42.331Z,8.04
2022-12-25T18:32:49.492Z,7.89
2022-12-25T18:36:03.059Z,7.86
2022-12-25T18:39:32.388Z,7.94
2022-12-25T18:42:46.657Z,7.79
2022-12-25T18:46:00.891Z,7.67
2022-12-25T18:49:33.714Z,7.79
2022-12-25T18:52:59.612Z,7.71
2022-12-25T18:56:12.534Z,7.69
2022-12-25T19:00:15.444Z,7.68
2022-12-25T19:03:20.107Z,7.58
2022-12-25T19:06:26.445Z,7.56
2022-12-25T19:09:52.928Z,7.13
2022-12-25T19:13:01.444Z,7.38
2022-12-25T19:16:13.307Z,7.30
2022-12-25T19:19:19.924Z,7.43
2022-12-25T19:22:27.382Z,7.54
2022-12-25T19:25:32.978Z,7.27
2022-12-25T19:28:46.399Z,7.10
2022-12-25T19:31:52.855Z,7.06
2022-12-25T19:34:57.707Z,6.94
2022-12-25T19:38:03.977Z,7.25
2022-12-25T19:41:20.813Z,7.24
2022-12-25T19:44:32.321Z,7.19
2022-12-25T19:48:11.163Z,6.89
2022-12-25T19:52:10.543Z,6.98
2022-12-25T19:55:15.412Z,6.89
2022-12-25T19:58:33.962Z,6.97
2022-12-25T20:01:39.429Z,6.76
2022-12-25T20:04:52.828Z,7.04
2022-12-25T20:08:21.037Z,6.75
2022-12-25T20:12:04.016Z,6.56
2022-12-25T20:15:15.649Z,6.60
2022-12-25T20:18:26.171Z,6.84
2022-12-25T20:22:00.230Z,6.85
2022-12-25T20:25:04.939Z,6.70
2022-12-25T20:28:09.108Z,6.45
2022-12-25T20:31:19.284Z,6.55
2022-12-25T20:34:23.360Z,6.54
2022-12-25T20:37:27.437Z,6.89
2022-12-25T20:40:32.444Z,7.00
2022-12-25T20:43:47.028Z,7.01
2022-12-25T20:46:51.925Z,6.93
2022-12-25T20:49:56.225Z,6.63
2022-12-25T20:52:59.814Z,6.72
2022-12-25T20:56:06.527Z,6.61
2022-12-25T20:59:12.631Z,6.64
2022-12-25T21:02:34.233Z,6.62
2022-12-25T21:05:50.798Z,6.63
2022-12-25T21:09:27.296Z,6.32
2022-12-25T21:12:42.339Z,6.31
2022-12-25T21:15:47.886Z,6.32
2022-12-25T21:18:56.381Z,6.59
2022-12-25T21:22:01.378Z,6.42
2022-12-25T21:25:05.463Z,6.51
2022-12-25T21:28:09.805Z,6.46
2022-12-25T21:31:13.817Z,6.57
2022-12-25T21:34:21.092Z,6.60
2022-12-25T21:37:26.402Z,6.82
2022-12-25T21:40:30.578Z,6.89
2022-12-25T21:43:34.581Z,6.99
2022-12-25T21:46:38.582Z,6.93
2022-12-25T21:50:01.492Z,6.96
2022-12-25T21:53:06.064Z,6.87
2022-12-25T21:56:09.628Z,7.00
2022-12-25T21:59:15.682Z,6.76
2022-12-25T22:02:19.631Z,6.78
2022-12-25T22:05:55.296Z,6.67
2022-12-25T22:08:59.944Z,6.81
2022-12-25T22:12:22.099Z,6.85
2022-12-25T22:15:39.825Z,6.90
2022-12-25T22:19:05.392Z,6.72
2022-12-25T22:22:12.671Z,6.39
2022-12-25T22:25:17.700Z,6.52
2022-12-25T22:28:22.351Z,6.59
2022-12-25T22:31:27.631Z,6.84
2022-12-25T22:34:31.160Z,6.65
2022-12-25T22:37:39.230Z,6.77
2022-12-25T22:40:43.397Z,6.48
2022-12-25T22:44:16.462Z,6.78
2022-12-25T22:47:12.748Z,6.63
2022-12-25T22:50:17.695Z,6.74
2022-12-25T22:53:24.300Z,6.59
2022-12-25T22:56:30.657Z,6.69
2022-12-25T22:59:38.393Z,6.58
2022-12-25T23:02:43.256Z,6.27
2022-12-25T23:05:56.582Z,6.41
2022-12-25T23:09:07.647Z,6.50
2022-12-25T23:12:32.954Z,6.55
2022-12-25T23:15:36.029Z,6.23
2022-12-25T23:18:56.796Z,6.18
2022-12-25T23:22:20.993Z,6.16
2022-12-25T23:25:43.959Z,6.40
2022-12-25T23:29:05.613Z,6.21
2022-12-25T23:32:12.750Z,6.04
2022-12-25T23:35:17.869Z,6.02
2022-12-25T23:38:21.359Z,6.13
2022-12-25T23:41:27.779Z,6.08
2022-12-25T23:44:31.679Z,6.11
2022-12-25T23:47:36.095Z,6.30
2022-12-25T23:50:39.563Z,6.05
2022-12-25T23:53:46.342Z,6.13
2022-12-25T23:56:52.271Z,6.43
2022-12-25T23:59:57.684Z,6.51
